createdAt,value
2024-01-24T00:00:16.535Z,0.00
2024-01-24T00:02:16.557Z,0.00
2024-01-24T00:03:16.912Z,0.00
2024-01-24T00:04:16.662Z,0.00
2024-01-24T00:05:16.601Z,0.00
2024-01-24T00:06:16.620Z,0.00
2024-01-24T00:07:16.645Z,0.00
2024-01-24T00:09:16.694Z,0.00
2024-01-24T00:10:16.993Z,0.00
2024-01-24T00:11:16.712Z,0.00
2024-01-24T00:12:16.852Z,0.00
2024-01-24T00:13:16.769Z,0.00
2024-01-24T00:14:16.833Z,0.00
2024-01-24T00:15:16.992Z,0.00
2024-01-24T00:16:17.150Z,0.00
2024-01-24T00:17:16.890Z,0.00
2024-01-24T00:18:17.359Z,0.00
2024-01-24T00:19:17.099Z,0.00
2024-01-24T00:21:17.096Z,0.00
2024-01-24T00:22:17.352Z,0.00
2024-01-24T00:24:17.196Z,0.00
2024-01-24T00:26:17.165Z,0.00
2024-01-24T00:27:17.290Z,0.00
2024-01-24T00:28:17.194Z,0.00
2024-01-24T00:29:17.521Z,0.00
2024-01-24T00:30:17.365Z,0.00
2024-01-24T00:31:17.265Z,0.00
2024-01-24T00:32:17.345Z,0.00
2024-01-24T00:33:17.353Z,0.00
2024-01-24T00:34:17.412Z,0.00
2024-01-24T00:35:17.404Z,0.00
2024-01-24T00:36:17.733Z,0.00
2024-01-24T00:37:17.436Z,0.00
2024-01-24T00:38:17.554Z,0.00
2024-01-24T00:39:17.496Z,0.00
2024-01-24T00:40:17.531Z,0.00
2024-01-24T00:41:17.577Z,0.00
2024-01-24T00:42:17.610Z,0.00
2024-01-24T00:43:17.964Z,0.00
2024-01-24T00:44:17.681Z,0.00
2024-01-24T00:45:18.269Z,0.00
2024-01-24T00:46:17.705Z,0.00
2024-01-24T00:47:17.759Z,0.00
2024-01-24T00:48:17.880Z,0.00
2024-01-24T00:49:17.962Z,0.00
2024-01-24T00:50:18.118Z,0.00
2024-01-24T00:51:17.871Z,0.00
2024-01-24T00:52:17.845Z,0.00
2024-01-24T00:53:17.873Z,0.00
2024-01-24T00:54:17.919Z,0.00
2024-01-24T00:55:17.930Z,0.00
2024-01-24T00:56:17.958Z,0.00
2024-01-24T00:57:18.397Z,0.00
2024-01-24T00:58:18.079Z,0.00
2024-01-24T00:59:18.030Z,0.00
2024-01-24T01:01:18.180Z,0.00
2024-01-24T01:02:18.176Z,0.00
2024-01-24T01:03:18.233Z,0.00
2024-01-24T01:04:18.560Z,0.00
2024-01-24T01:05:18.243Z,0.00
2024-01-24T01:06:18.245Z,0.00
2024-01-24T01:07:18.270Z,0.00
2024-01-24T01:08:18.320Z,0.00
2024-01-24T01:09:18.347Z,0.00
2024-01-24T01:10:18.452Z,0.00
2024-01-24T01:11:18.723Z,0.00
2024-01-24T01:12:19.798Z,0.00
2024-01-24T01:13:18.469Z,0.00
2024-01-24T01:14:18.461Z,0.00
2024-01-24T01:15:18.515Z,0.00
2024-01-24T01:16:18.551Z,0.00
2024-01-24T01:17:18.530Z,0.00
2024-01-24T01:18:18.899Z,0.00
2024-01-24T01:19:18.661Z,0.00
2024-01-24T01:20:18.605Z,0.00
2024-01-24T01:21:18.758Z,0.00
2024-01-24T01:22:18.745Z,0.00
2024-01-24T01:23:18.696Z,0.00
2024-01-24T01:24:18.784Z,0.00
2024-01-24T01:25:19.058Z,0.00
2024-01-24T01:26:18.780Z,0.00
2024-01-24T01:27:18.922Z,0.00
2024-01-24T01:29:18.881Z,0.00
2024-01-24T01:30:18.980Z,0.00
2024-01-24T01:31:18.925Z,0.00
2024-01-24T01:32:19.249Z,0.00
2024-01-24T01:34:19.117Z,0.00
2024-01-24T01:35:19.035Z,0.00
2024-01-24T01:36:23.370Z,0.00
2024-01-24T01:37:19.088Z,0.00
2024-01-24T01:39:19.258Z,0.00
2024-01-24T01:40:19.515Z,0.00
2024-01-24T01:41:19.294Z,0.00
2024-01-24T01:42:19.403Z,0.00
2024-01-24T01:43:19.483Z,0.00
2024-01-24T01:44:19.381Z,0.00
2024-01-24T01:45:19.418Z,0.00
2024-01-24T01:46:19.390Z,0.00
2024-01-24T01:47:19.769Z,0.00
2024-01-24T01:48:19.526Z,0.00
2024-01-24T01:49:19.520Z,0.00
2024-01-24T01:50:19.542Z,0.00
2024-01-24T01:51:19.584Z,0.00
2024-01-24T01:52:19.726Z,0.00
2024-01-24T01:53:19.628Z,0.00
2024-01-24T01:54:19.978Z,0.00
2024-01-24T01:55:19.588Z,0.00
2024-01-24T01:56:19.670Z,0.00
2024-01-24T01:57:19.670Z,0.00
2024-01-24T01:58:19.693Z,0.00
2024-01-24T01:59:19.699Z,0.00
2024-01-24T02:00:19.741Z,0.00
2024-01-24T02:01:20.048Z,0.00
2024-01-24T02:02:19.767Z,0.00
2024-01-24T02:03:19.925Z,0.00
2024-01-24T02:04:19.961Z,0.00
2024-01-24T02:05:19.878Z,0.00
2024-01-24T02:06:20.004Z,0.00
2024-01-24T02:07:20.324Z,0.00
2024-01-24T02:08:19.932Z,0.00
2024-01-24T02:09:19.982Z,0.00
2024-01-24T02:10:20.056Z,0.00
2024-01-24T02:11:20.018Z,0.00
2024-01-24T02:12:20.086Z,0.00
2024-01-24T02:13:20.399Z,0.00
2024-01-24T02:14:20.114Z,0.00
2024-01-24T02:17:20.188Z,0.00
2024-01-24T02:18:20.319Z,0.00
2024-01-24T02:19:20.626Z,0.00
2024-01-24T02:20:20.289Z,0.00
2024-01-24T02:22:20.355Z,0.00
2024-01-24T02:23:20.355Z,0.00
2024-01-24T02:24:20.493Z,0.00
2024-01-24T02:25:20.706Z,0.00
2024-01-24T02:26:20.498Z,0.00
2024-01-24T02:27:20.518Z,0.00
2024-01-24T02:28:20.498Z,0.00
2024-01-24T02:29:20.523Z,0.00
2024-01-24T02:30:20.684Z,0.00
2024-01-24T02:31:20.571Z,0.00
2024-01-24T02:33:20.790Z,0.00
2024-01-24T02:34:20.750Z,0.00
2024-01-24T02:35:20.872Z,0.00
2024-01-24T02:36:20.779Z,0.00
2024-01-24T02:38:20.920Z,0.00
2024-01-24T02:39:21.105Z,0.00
2024-01-24T02:40:20.833Z,0.00
2024-01-24T02:41:20.927Z,0.00
2024-01-24T02:42:20.909Z,0.00
2024-01-24T02:43:20.907Z,0.00
2024-01-24T02:44:20.996Z,0.00
2024-01-24T02:45:21.032Z,0.00
2024-01-24T02:46:21.332Z,0.00
2024-01-24T02:47:21.163Z,0.00
2024-01-24T02:48:21.193Z,0.00
2024-01-24T02:49:21.145Z,0.00
2024-01-24T02:50:21.251Z,0.00
2024-01-24T02:51:21.163Z,0.00
2024-01-24T02:52:21.154Z,0.00
2024-01-24T02:53:21.482Z,0.00
2024-01-24T02:54:21.286Z,0.00
2024-01-24T02:55:21.235Z,0.00
2024-01-24T02:56:21.343Z,0.00
2024-01-24T02:57:21.306Z,0.00
2024-01-24T02:59:21.343Z,0.00
2024-01-24T03:00:21.752Z,0.00
2024-01-24T03:01:21.543Z,0.00
2024-01-24T03:02:21.435Z,0.00
2024-01-24T03:03:21.479Z,0.00
2024-01-24T03:04:21.781Z,0.00
2024-01-24T03:05:21.519Z,0.00
2024-01-24T03:06:21.597Z,0.00
2024-01-24T03:08:22.058Z,0.00
2024-01-24T03:09:21.668Z,0.00
2024-01-24T03:10:21.732Z,0.00
2024-01-24T03:11:21.800Z,0.00
2024-01-24T03:12:21.749Z,0.00
2024-01-24T03:13:22.520Z,0.00
2024-01-24T03:14:21.773Z,0.00
2024-01-24T03:15:22.122Z,0.00
2024-01-24T03:16:21.819Z,0.00
2024-01-24T03:17:21.862Z,0.00
2024-01-24T03:18:22.073Z,0.00
2024-01-24T03:19:22.040Z,0.00
2024-01-24T03:20:21.951Z,0.00
2024-01-24T03:22:22.042Z,0.00
2024-01-24T03:25:22.330Z,0.00
2024-01-24T03:26:22.126Z,0.00
2024-01-24T03:27:22.304Z,0.00
2024-01-24T03:28:22.368Z,0.00
2024-01-24T03:29:22.180Z,0.00
2024-01-24T03:30:22.285Z,0.00
2024-01-24T03:31:22.604Z,0.00
2024-01-24T03:32:22.260Z,0.00
2024-01-24T03:33:22.411Z,0.00
2024-01-24T03:34:22.360Z,0.00
2024-01-24T03:35:22.353Z,0.00
2024-01-24T03:36:22.407Z,0.00
2024-01-24T03:37:22.404Z,0.00
2024-01-24T03:38:22.732Z,0.00
2024-01-24T03:39:22.489Z,0.00
2024-01-24T03:40:22.478Z,0.00
2024-01-24T03:41:22.604Z,0.00
2024-01-24T03:42:22.668Z,0.00
2024-01-24T03:43:22.602Z,0.00
2024-01-24T03:44:22.636Z,0.00
2024-01-24T03:45:23.070Z,0.00
2024-01-24T03:46:22.709Z,0.00
2024-01-24T03:47:22.797Z,0.00
2024-01-24T03:48:22.773Z,0.00
2024-01-24T03:49:23.086Z,0.00
2024-01-24T03:51:22.838Z,0.00
2024-01-24T03:52:23.134Z,0.00
2024-01-24T03:54:22.945Z,0.00
2024-01-24T03:55:22.918Z,0.00
2024-01-24T03:56:22.933Z,0.00
2024-01-24T03:57:22.978Z,0.00
2024-01-24T03:58:23.033Z,0.00
2024-01-24T03:59:23.308Z,0.00
2024-01-24T04:01:23.228Z,0.00
2024-01-24T04:02:23.109Z,0.00
2024-01-24T04:03:23.281Z,0.00
2024-01-24T04:04:23.428Z,0.00
2024-01-24T04:05:23.163Z,0.00
2024-01-24T04:06:23.659Z,0.00
2024-01-24T04:07:23.495Z,0.00
2024-01-24T04:08:23.262Z,0.00
2024-01-24T04:09:23.321Z,0.00
2024-01-24T04:10:23.371Z,0.00
2024-01-24T04:11:23.354Z,0.00
2024-01-24T04:12:23.409Z,0.00
2024-01-24T04:13:23.746Z,0.00
2024-01-24T04:14:23.541Z,0.00
2024-01-24T04:15:23.681Z,0.00
2024-01-24T04:16:23.554Z,0.00
2024-01-24T04:17:23.571Z,0.00
2024-01-24T04:18:23.770Z,0.00
2024-01-24T04:19:23.645Z,0.00
2024-01-24T04:20:23.929Z,0.00
2024-01-24T04:21:23.733Z,0.00
2024-01-24T04:22:23.655Z,0.00
2024-01-24T04:23:23.656Z,0.00
2024-01-24T04:25:23.742Z,0.00
2024-01-24T04:27:23.885Z,0.00
2024-01-24T04:28:24.125Z,0.00
2024-01-24T04:29:23.818Z,0.00
2024-01-24T04:30:23.988Z,0.00
2024-01-24T04:31:23.878Z,0.00
2024-01-24T04:32:23.916Z,0.00
2024-01-24T04:33:24.071Z,0.00
2024-01-24T04:34:24.131Z,0.00
2024-01-24T04:35:24.295Z,0.00
2024-01-24T04:36:24.038Z,0.00
2024-01-24T04:37:24.080Z,0.00
2024-01-24T04:38:24.086Z,0.00
2024-01-24T04:39:24.152Z,0.00
2024-01-24T04:40:24.131Z,0.00
2024-01-24T04:41:24.183Z,0.00
2024-01-24T04:42:24.526Z,0.00
2024-01-24T04:43:24.227Z,0.00
2024-01-24T04:44:24.248Z,0.00
2024-01-24T04:46:24.321Z,0.00
2024-01-24T04:47:24.477Z,0.00
2024-01-24T04:48:24.469Z,0.00
2024-01-24T04:50:24.762Z,0.00
2024-01-24T04:51:24.458Z,0.00
2024-01-24T04:53:24.616Z,0.00
2024-01-24T04:54:24.559Z,0.00
2024-01-24T04:55:24.630Z,0.00
2024-01-24T04:56:24.630Z,0.00
2024-01-24T04:57:24.987Z,0.00
2024-01-24T04:58:24.631Z,0.00
2024-01-24T04:59:24.689Z,0.00
2024-01-24T05:01:24.986Z,0.00
2024-01-24T05:02:24.839Z,0.00
2024-01-24T05:03:24.812Z,0.00
2024-01-24T05:04:25.134Z,0.00
2024-01-24T05:05:24.865Z,0.00
2024-01-24T05:06:24.881Z,0.00
2024-01-24T05:07:24.919Z,0.00
2024-01-24T05:08:24.899Z,0.00
2024-01-24T05:09:25.015Z,0.00
2024-01-24T05:10:24.984Z,0.00
2024-01-24T05:11:25.441Z,0.00
2024-01-24T05:12:25.117Z,0.00
2024-01-24T05:13:25.134Z,0.00
2024-01-24T05:14:25.312Z,0.00
2024-01-24T05:15:25.110Z,0.00
2024-01-24T05:16:25.157Z,0.00
2024-01-24T05:17:25.163Z,0.00
2024-01-24T05:18:25.655Z,0.00
2024-01-24T05:19:25.343Z,0.00
2024-01-24T05:20:25.233Z,0.00
2024-01-24T05:21:25.459Z,0.00
2024-01-24T05:22:25.280Z,0.00
2024-01-24T05:23:25.298Z,0.00
2024-01-24T05:24:25.520Z,0.00
2024-01-24T05:25:25.692Z,0.00
2024-01-24T05:26:25.393Z,0.00
2024-01-24T05:27:25.535Z,0.00
2024-01-24T05:28:25.471Z,0.00
2024-01-24T05:29:25.540Z,0.00
2024-01-24T05:30:34.904Z,0.00
2024-01-24T05:31:25.581Z,0.00
2024-01-24T05:32:25.892Z,0.00
2024-01-24T05:33:25.749Z,0.00
2024-01-24T05:34:25.717Z,0.00
2024-01-24T05:36:25.761Z,0.00
2024-01-24T05:37:25.684Z,0.00
2024-01-24T05:39:26.097Z,0.00
2024-01-24T05:40:25.842Z,0.00
2024-01-24T05:41:25.795Z,0.00
2024-01-24T05:42:25.850Z,0.00
2024-01-24T05:44:25.885Z,0.00
2024-01-24T05:45:25.944Z,0.00
2024-01-24T05:46:25.940Z,0.00
2024-01-24T05:47:26.070Z,0.00
2024-01-24T05:48:26.135Z,0.00
2024-01-24T05:49:26.262Z,0.00
2024-01-24T05:50:26.125Z,0.00
2024-01-24T05:51:26.085Z,0.00
2024-01-24T05:52:26.452Z,0.00
2024-01-24T05:53:26.193Z,0.00
2024-01-24T05:54:26.196Z,0.00
2024-01-24T05:55:26.181Z,0.00
2024-01-24T05:56:26.308Z,0.00
2024-01-24T05:57:26.242Z,0.00
2024-01-24T05:59:26.666Z,0.00
2024-01-24T06:00:26.371Z,0.00
2024-01-24T06:01:26.417Z,0.00
2024-01-24T06:02:26.378Z,0.00
2024-01-24T06:03:26.410Z,0.00
2024-01-24T06:04:26.585Z,0.00
2024-01-24T06:06:26.610Z,0.00
2024-01-24T06:07:26.679Z,0.00
2024-01-24T06:08:26.545Z,0.00
2024-01-24T06:09:26.612Z,0.00
2024-01-24T06:10:26.696Z,0.00
2024-01-24T06:12:26.986Z,0.00
2024-01-24T06:13:26.783Z,0.00
2024-01-24T06:14:26.695Z,0.00
2024-01-24T06:15:26.752Z,0.00
2024-01-24T06:16:26.799Z,0.00
2024-01-24T06:17:26.792Z,0.00
2024-01-24T06:18:26.920Z,0.00
2024-01-24T06:19:27.022Z,0.00
2024-01-24T06:20:26.882Z,0.00
2024-01-24T06:21:26.916Z,0.00
2024-01-24T06:22:27.137Z,0.00
2024-01-24T06:23:26.967Z,0.00
2024-01-24T06:24:27.280Z,0.00
2024-01-24T06:25:26.993Z,0.00
2024-01-24T06:26:27.036Z,0.00
2024-01-24T06:27:27.159Z,0.00
2024-01-24T06:28:27.077Z,0.00
2024-01-24T06:30:15.326Z,0.00
2024-01-24T06:30:29.789Z,0.00
2024-01-24T06:31:27.514Z,0.00
2024-01-24T06:32:27.206Z,0.00
2024-01-24T06:33:27.249Z,0.00
2024-01-24T06:34:27.528Z,0.00
2024-01-24T06:35:27.266Z,0.00
2024-01-24T06:36:27.363Z,0.00
2024-01-24T06:37:27.332Z,0.00
2024-01-24T06:38:27.662Z,0.00
2024-01-24T06:39:27.457Z,0.00
2024-01-24T06:40:27.400Z,0.00
2024-01-24T06:41:27.432Z,0.00
2024-01-24T06:42:27.522Z,0.00
2024-01-24T06:43:27.480Z,0.00
2024-01-24T06:45:27.849Z,0.00
2024-01-24T06:46:27.661Z,0.00
2024-01-24T06:47:27.603Z,0.00
2024-01-24T06:48:27.667Z,0.00
2024-01-24T06:49:27.785Z,0.00
2024-01-24T06:50:27.756Z,0.00
2024-01-24T06:51:27.754Z,0.00
2024-01-24T06:52:28.063Z,0.00
2024-01-24T06:53:27.783Z,0.00
2024-01-24T06:54:27.808Z,0.00
2024-01-24T06:55:27.810Z,0.00
2024-01-24T06:56:27.956Z,0.00
2024-01-24T06:57:27.889Z,0.00
2024-01-24T06:58:27.886Z,0.00
2024-01-24T06:59:28.221Z,0.00
2024-01-24T07:00:28.081Z,0.00
2024-01-24T07:01:28.181Z,0.00
2024-01-24T07:02:28.043Z,0.00
2024-01-24T07:03:28.106Z,0.00
2024-01-24T07:04:28.179Z,0.00
2024-01-24T07:06:28.329Z,0.00
2024-01-24T07:07:28.317Z,0.00
2024-01-24T07:08:28.160Z,0.00
2024-01-24T07:09:28.353Z,0.00
2024-01-24T07:10:29.504Z,0.00
2024-01-24T07:11:28.245Z,0.00
2024-01-24T07:12:28.334Z,0.00
2024-01-24T07:13:28.314Z,0.00
2024-01-24T07:14:28.330Z,0.00
2024-01-24T07:15:28.379Z,0.00
2024-01-24T07:16:28.461Z,0.00
2024-01-24T07:17:28.448Z,0.00
2024-01-24T07:19:28.864Z,0.00
2024-01-24T07:20:28.721Z,0.00
2024-01-24T07:21:28.559Z,0.00
2024-01-24T07:22:29.198Z,0.00
2024-01-24T07:24:28.734Z,0.00
2024-01-24T07:26:29.045Z,0.00
2024-01-24T07:27:28.838Z,0.00
2024-01-24T07:28:28.712Z,0.00
2024-01-24T07:30:32.641Z,0.00
2024-01-24T07:31:28.776Z,0.00
2024-01-24T07:32:29.177Z,0.00
2024-01-24T07:33:29.111Z,0.00
2024-01-24T07:34:29.101Z,0.00
2024-01-24T07:35:28.894Z,0.00
2024-01-24T07:36:29.032Z,0.00
2024-01-24T07:37:28.957Z,0.00
2024-01-24T07:38:28.989Z,0.00
2024-01-24T07:39:29.083Z,0.00
2024-01-24T07:40:29.691Z,0.00
2024-01-24T07:41:29.048Z,0.00
2024-01-24T07:42:29.232Z,0.00
2024-01-24T07:43:29.108Z,0.00
2024-01-24T07:44:29.183Z,0.00
2024-01-24T07:46:29.195Z,0.00
2024-01-24T07:47:29.250Z,0.00
2024-01-24T07:48:29.321Z,0.00
2024-01-24T07:49:29.406Z,0.00
2024-01-24T07:50:29.954Z,0.00
2024-01-24T07:51:29.365Z,0.00
2024-01-24T07:52:36.993Z,0.00
2024-01-24T07:53:29.492Z,0.00
2024-01-24T07:54:29.469Z,0.00
2024-01-24T07:55:36.858Z,0.00
2024-01-24T07:56:29.569Z,0.00
2024-01-24T07:57:29.874Z,0.00
2024-01-24T07:59:29.615Z,0.00
2024-01-24T08:00:30.004Z,5.63
2024-01-24T08:01:29.664Z,0.00
2024-01-24T08:02:29.679Z,0.00
2024-01-24T08:03:29.684Z,0.00
2024-01-24T08:04:30.105Z,0.00
2024-01-24T08:06:29.801Z,0.00
2024-01-24T08:07:29.749Z,0.00
2024-01-24T08:08:29.821Z,0.00
2024-01-24T08:09:29.816Z,0.00
2024-01-24T08:10:30.036Z,0.00
2024-01-24T08:11:30.397Z,0.00
2024-01-24T08:12:29.931Z,0.00
2024-01-24T08:13:29.908Z,0.00
2024-01-24T08:14:29.937Z,0.00
2024-01-24T08:15:30.042Z,5.63
2024-01-24T08:16:29.992Z,5.63
2024-01-24T08:17:30.052Z,11.25
2024-01-24T08:18:30.561Z,11.25
2024-01-24T08:19:30.191Z,5.63
2024-01-24T08:20:30.094Z,5.63
2024-01-24T08:21:30.168Z,5.63
2024-01-24T08:22:30.373Z,5.63
2024-01-24T08:23:38.344Z,0.00
2024-01-24T08:24:30.276Z,0.00
2024-01-24T08:25:30.581Z,5.63
2024-01-24T08:26:30.420Z,5.63
2024-01-24T08:27:30.435Z,11.25
2024-01-24T08:28:30.465Z,11.25
2024-01-24T08:29:36.713Z,16.88
2024-01-24T08:30:30.461Z,16.88
2024-01-24T08:31:30.587Z,16.88
2024-01-24T08:32:30.656Z,16.88
2024-01-24T08:33:30.574Z,16.88
2024-01-24T08:34:30.682Z,11.25
2024-01-24T08:36:30.703Z,5.63
2024-01-24T08:37:30.553Z,5.63
2024-01-24T08:38:30.933Z,5.63
2024-01-24T08:39:30.848Z,5.63
2024-01-24T08:40:30.696Z,5.63
2024-01-24T08:41:30.668Z,5.63
2024-01-24T08:42:30.853Z,5.63
2024-01-24T08:43:30.715Z,5.63
2024-01-24T08:44:31.050Z,5.63
2024-01-24T08:45:30.994Z,11.25
2024-01-24T08:46:30.792Z,11.25
2024-01-24T08:47:30.873Z,16.88
2024-01-24T08:48:31.038Z,22.50
2024-01-24T08:49:30.940Z,16.88
2024-01-24T08:50:31.207Z,11.25
2024-01-24T08:51:30.977Z,11.25
2024-01-24T08:52:30.956Z,5.63
2024-01-24T08:53:30.982Z,5.63
2024-01-24T08:54:31.079Z,5.63
2024-01-24T08:55:31.043Z,5.63
2024-01-24T08:56:31.117Z,5.63
2024-01-24T08:57:31.438Z,5.63
2024-01-24T08:58:31.122Z,11.25
2024-01-24T08:59:31.960Z,16.88
2024-01-24T09:00:31.245Z,16.88
2024-01-24T09:01:32.489Z,22.50
2024-01-24T09:02:31.274Z,22.50
2024-01-24T09:03:31.360Z,22.50
2024-01-24T09:04:31.400Z,28.13
2024-01-24T09:05:31.377Z,33.75
2024-01-24T09:06:31.379Z,39.38
2024-01-24T09:07:31.369Z,39.38
2024-01-24T09:08:31.421Z,33.75
2024-01-24T09:09:31.494Z,28.13
2024-01-24T09:10:31.859Z,28.13
2024-01-24T09:11:35.126Z,28.13
2024-01-24T09:12:31.538Z,28.13
2024-01-24T09:13:31.541Z,28.13
2024-01-24T09:14:31.560Z,28.13
2024-01-24T09:15:31.622Z,28.13
2024-01-24T09:16:31.767Z,28.13
2024-01-24T09:17:31.980Z,28.13
2024-01-24T09:18:31.816Z,28.13
2024-01-24T09:19:31.960Z,28.13
2024-01-24T09:20:31.717Z,28.13
2024-01-24T09:21:31.804Z,28.13
2024-01-24T09:22:31.861Z,22.50
2024-01-24T09:23:31.814Z,22.50
2024-01-24T09:24:31.888Z,22.50
2024-01-24T09:25:31.888Z,22.50
2024-01-24T09:26:32.001Z,28.13
2024-01-24T09:27:31.944Z,28.13
2024-01-24T09:28:31.988Z,22.50
2024-01-24T09:29:31.972Z,16.88
2024-01-24T09:30:32.338Z,16.88
2024-01-24T09:31:32.129Z,22.50
2024-01-24T09:32:32.185Z,22.50
2024-01-24T09:33:32.756Z,28.13
2024-01-24T09:34:32.358Z,33.75
2024-01-24T09:35:32.189Z,33.75
2024-01-24T09:36:32.167Z,33.75
2024-01-24T09:37:32.236Z,33.75
2024-01-24T09:38:32.212Z,33.75
2024-01-24T09:39:32.404Z,33.75
2024-01-24T09:40:32.292Z,39.38
2024-01-24T09:42:32.658Z,39.38
2024-01-24T09:43:32.331Z,39.38
2024-01-24T09:44:32.371Z,39.38
2024-01-24T09:45:32.459Z,39.38
2024-01-24T09:46:32.414Z,39.38
2024-01-24T09:47:32.460Z,45.00
2024-01-24T09:48:32.593Z,39.38
2024-01-24T09:49:32.555Z,33.75
2024-01-24T09:50:32.537Z,33.75
2024-01-24T09:51:32.687Z,33.75
2024-01-24T09:53:32.909Z,33.75
2024-01-24T09:54:32.848Z,33.75
2024-01-24T09:55:32.667Z,28.13
2024-01-24T09:56:32.718Z,28.13
2024-01-24T09:57:32.758Z,33.75
2024-01-24T09:58:32.736Z,33.75
2024-01-24T09:59:32.802Z,33.75
2024-01-24T10:00:33.158Z,33.75
2024-01-24T10:01:33.038Z,45.00
2024-01-24T10:02:33.093Z,39.38
2024-01-24T10:03:34.904Z,39.38
2024-01-24T10:04:32.962Z,45.00
2024-01-24T10:05:32.997Z,45.00
2024-01-24T10:06:33.100Z,50.63
2024-01-24T10:07:33.465Z,45.00
2024-01-24T10:08:33.121Z,45.00
2024-01-24T10:09:33.081Z,45.00
2024-01-24T10:10:33.072Z,45.00
2024-01-24T10:11:33.218Z,50.63
2024-01-24T10:12:33.403Z,50.63
2024-01-24T10:13:33.178Z,45.00
2024-01-24T10:14:33.485Z,50.63
2024-01-24T10:15:33.249Z,50.63
2024-01-24T10:16:33.235Z,50.63
2024-01-24T10:17:33.319Z,50.63
2024-01-24T10:18:33.618Z,45.00
2024-01-24T10:19:33.370Z,45.00
2024-01-24T10:20:33.346Z,45.00
2024-01-24T10:21:33.873Z,45.00
2024-01-24T10:22:33.519Z,45.00
2024-01-24T10:23:33.440Z,45.00
2024-01-24T10:24:33.463Z,39.38
2024-01-24T10:26:33.500Z,39.38
2024-01-24T10:27:34.822Z,45.00
2024-01-24T10:29:33.588Z,45.00
2024-01-24T10:30:33.866Z,50.63
2024-01-24T10:31:33.732Z,45.00
2024-01-24T10:33:34.210Z,39.38
2024-01-24T10:34:34.002Z,45.00
2024-01-24T10:35:33.819Z,50.63
2024-01-24T10:36:34.981Z,56.25
2024-01-24T10:37:33.992Z,56.25
2024-01-24T10:38:33.969Z,56.25
2024-01-24T10:39:34.154Z,56.25
2024-01-24T10:40:33.936Z,56.25
2024-01-24T10:42:34.037Z,56.25
2024-01-24T10:43:34.069Z,56.25
2024-01-24T10:44:34.005Z,56.25
2024-01-24T10:45:34.332Z,56.25
2024-01-24T10:46:34.053Z,56.25
2024-01-24T10:47:34.099Z,56.25
2024-01-24T10:48:34.315Z,56.25
2024-01-24T10:49:34.222Z,61.88
2024-01-24T10:52:34.600Z,67.50
2024-01-24T10:53:34.241Z,73.13
2024-01-24T10:54:34.428Z,73.13
2024-01-24T10:55:34.328Z,73.13
2024-01-24T10:56:34.617Z,67.50
2024-01-24T10:57:34.460Z,73.13
2024-01-24T10:58:34.398Z,67.50
2024-01-24T10:59:34.840Z,67.50
2024-01-24T11:00:34.486Z,61.88
2024-01-24T11:02:34.660Z,56.25
2024-01-24T11:04:34.581Z,50.63
2024-01-24T11:05:34.865Z,45.00
2024-01-24T11:07:34.629Z,56.25
2024-01-24T11:08:40.492Z,45.00
2024-01-24T11:09:34.674Z,45.00
2024-01-24T11:10:34.836Z,45.00
2024-01-24T11:11:34.787Z,56.25
2024-01-24T11:12:35.069Z,61.88
2024-01-24T11:13:34.789Z,61.88
2024-01-24T11:14:35.129Z,56.25
2024-01-24T11:15:34.877Z,56.25
2024-01-24T11:16:35.136Z,50.63
2024-01-24T11:17:34.985Z,45.00
2024-01-24T11:18:35.050Z,50.63
2024-01-24T11:19:35.413Z,56.25
2024-01-24T11:20:35.025Z,56.25
2024-01-24T11:21:36.676Z,56.25
2024-01-24T11:22:35.110Z,56.25
2024-01-24T11:23:35.055Z,61.88
2024-01-24T11:24:35.104Z,56.25
2024-01-24T11:26:35.378Z,56.25
2024-01-24T11:27:36.005Z,45.00
2024-01-24T11:28:35.182Z,50.63
2024-01-24T11:29:35.209Z,56.25
2024-01-24T11:30:35.257Z,61.88
2024-01-24T11:32:35.614Z,56.25
2024-01-24T11:33:35.477Z,61.88
2024-01-24T11:34:35.522Z,61.88
2024-01-24T11:35:35.657Z,67.50
2024-01-24T11:36:35.447Z,67.50
2024-01-24T11:37:35.478Z,61.88
2024-01-24T11:38:35.455Z,67.50
2024-01-24T11:39:35.628Z,67.50
2024-01-24T11:40:35.558Z,61.88
2024-01-24T11:41:35.540Z,67.50
2024-01-24T11:42:35.657Z,67.50
2024-01-24T11:43:38.334Z,73.13
2024-01-24T11:44:35.989Z,73.13
2024-01-24T11:45:35.736Z,67.50
2024-01-24T11:46:35.780Z,67.50
2024-01-24T11:47:35.790Z,61.88
2024-01-24T11:48:35.923Z,67.50
2024-01-24T11:49:35.884Z,67.50
2024-01-24T11:50:35.790Z,67.50
2024-01-24T11:51:35.989Z,67.50
2024-01-24T11:52:35.841Z,67.50
2024-01-24T11:53:35.911Z,67.50
2024-01-24T11:54:35.991Z,67.50
2024-01-24T11:55:35.922Z,73.13
2024-01-24T11:57:36.357Z,73.13
2024-01-24T11:58:36.073Z,67.50
2024-01-24T11:59:36.050Z,67.50
2024-01-24T12:00:36.158Z,73.13
2024-01-24T12:01:36.140Z,73.13
2024-01-24T12:02:36.169Z,61.88
2024-01-24T12:03:36.290Z,56.25
2024-01-24T12:04:36.229Z,61.88
2024-01-24T12:05:36.195Z,61.88
2024-01-24T12:06:36.334Z,56.25
2024-01-24T12:07:36.314Z,61.88
2024-01-24T12:08:36.297Z,61.88
2024-01-24T12:09:36.353Z,61.88
2024-01-24T12:10:36.676Z,61.88
2024-01-24T12:11:36.471Z,67.50
2024-01-24T12:12:36.428Z,67.50
2024-01-24T12:13:36.409Z,67.50
2024-01-24T12:14:36.534Z,67.50
2024-01-24T12:15:36.499Z,61.88
2024-01-24T12:16:36.539Z,67.50
2024-01-24T12:17:39.572Z,67.50
2024-01-24T12:18:36.728Z,61.88
2024-01-24T12:20:36.663Z,61.88
2024-01-24T12:21:36.683Z,56.25
2024-01-24T12:22:36.652Z,56.25
2024-01-24T12:23:36.767Z,61.88
2024-01-24T12:24:36.746Z,67.50
2024-01-24T12:25:36.736Z,67.50
2024-01-24T12:26:36.774Z,61.88
2024-01-24T12:27:36.825Z,61.88
2024-01-24T12:28:36.893Z,61.88
2024-01-24T12:29:36.858Z,56.25
2024-01-24T12:30:36.933Z,56.25
2024-01-24T12:31:37.010Z,56.25
2024-01-24T12:32:36.967Z,45.00
2024-01-24T12:33:37.657Z,56.25
2024-01-24T12:34:37.248Z,45.00
2024-01-24T12:35:37.021Z,50.63
2024-01-24T12:36:37.373Z,50.63
2024-01-24T12:37:37.122Z,50.63
2024-01-24T12:38:37.153Z,45.00
2024-01-24T12:39:37.136Z,45.00
2024-01-24T12:41:37.174Z,50.63
2024-01-24T12:42:37.250Z,45.00
2024-01-24T12:43:37.316Z,45.00
2024-01-24T12:45:38.200Z,50.63
2024-01-24T12:46:37.373Z,45.00
2024-01-24T12:47:37.454Z,45.00
2024-01-24T12:48:37.623Z,50.63
2024-01-24T12:49:37.929Z,45.00
2024-01-24T12:50:37.591Z,45.00
2024-01-24T12:51:38.753Z,39.38
2024-01-24T12:52:37.489Z,39.38
2024-01-24T12:53:37.512Z,45.00
2024-01-24T12:54:37.751Z,45.00
2024-01-24T12:55:37.557Z,39.38
2024-01-24T12:56:37.902Z,39.38
2024-01-24T12:57:37.673Z,39.38
2024-01-24T12:58:37.672Z,39.38
2024-01-24T12:59:37.677Z,45.00
2024-01-24T13:00:37.951Z,39.38
2024-01-24T13:01:37.865Z,45.00
2024-01-24T13:02:37.748Z,50.63
2024-01-24T13:03:37.954Z,45.00
2024-01-24T13:04:37.957Z,39.38
2024-01-24T13:05:42.928Z,45.00
2024-01-24T13:06:38.001Z,45.00
2024-01-24T13:07:38.241Z,39.38
2024-01-24T13:08:37.925Z,56.25
2024-01-24T13:09:42.847Z,56.25
2024-01-24T13:10:37.974Z,56.25
2024-01-24T13:11:38.111Z,56.25
2024-01-24T13:12:38.308Z,50.63
2024-01-24T13:13:38.041Z,56.25
2024-01-24T13:14:38.130Z,61.88
2024-01-24T13:15:40.239Z,67.50
2024-01-24T13:16:38.148Z,61.88
2024-01-24T13:17:38.198Z,61.88
2024-01-24T13:18:38.275Z,61.88
2024-01-24T13:19:38.365Z,56.25
2024-01-24T13:20:38.297Z,61.88
2024-01-24T13:21:42.627Z,56.25
2024-01-24T13:22:38.669Z,50.63
2024-01-24T13:23:38.418Z,45.00
2024-01-24T13:24:38.397Z,50.63
2024-01-24T13:25:38.405Z,56.25
2024-01-24T13:26:38.449Z,50.63
2024-01-24T13:27:38.437Z,50.63
2024-01-24T13:28:38.490Z,50.63
2024-01-24T13:29:38.781Z,45.00
2024-01-24T13:30:38.581Z,39.38
2024-01-24T13:31:38.570Z,28.13
2024-01-24T13:32:38.635Z,28.13
2024-01-24T13:33:40.313Z,22.50
2024-01-24T13:34:38.856Z,28.13
2024-01-24T13:35:39.032Z,33.75
2024-01-24T13:36:38.745Z,39.38
2024-01-24T13:37:39.298Z,45.00
2024-01-24T13:38:38.734Z,45.00
2024-01-24T13:39:40.503Z,50.63
2024-01-24T13:40:38.800Z,50.63
2024-01-24T13:41:39.121Z,45.00
2024-01-24T13:42:38.882Z,45.00
2024-01-24T13:43:38.911Z,39.38
2024-01-24T13:44:38.893Z,39.38
2024-01-24T13:45:41.211Z,39.38
2024-01-24T13:46:38.997Z,45.00
2024-01-24T13:47:39.529Z,45.00
2024-01-24T13:48:39.356Z,39.38
2024-01-24T13:49:39.239Z,39.38
2024-01-24T13:50:39.199Z,45.00
2024-01-24T13:51:43.151Z,39.38
2024-01-24T13:52:40.375Z,39.38
2024-01-24T13:53:39.143Z,39.38
2024-01-24T13:54:39.306Z,39.38
2024-01-24T13:55:39.197Z,45.00
2024-01-24T13:56:39.224Z,45.00
2024-01-24T13:57:42.100Z,39.38
2024-01-24T13:58:39.347Z,39.38
2024-01-24T13:59:39.300Z,45.00
2024-01-24T14:00:39.488Z,50.63
2024-01-24T14:01:45.240Z,56.25
2024-01-24T14:02:39.420Z,56.25
2024-01-24T14:03:40.914Z,50.63
2024-01-24T14:04:39.527Z,45.00
2024-01-24T14:05:40.585Z,39.38
2024-01-24T14:06:39.648Z,39.38
2024-01-24T14:08:39.648Z,33.75
2024-01-24T14:09:40.750Z,33.75
2024-01-24T14:10:39.618Z,33.75